createdAt,value
2022-08-19T00:01:30.454Z,20.67
2022-08-19T00:04:00.021Z,20.74
2022-08-19T00:06:28.277Z,20.66
2022-08-19T00:08:56.320Z,20.54
2022-08-19T00:11:26.002Z,20.66
2022-08-19T00:13:54.069Z,20.70
2022-08-19T00:16:26.915Z,20.52
2022-08-19T00:18:56.197Z,20.51
2022-08-19T00:21:24.076Z,20.63
2022-08-19T00:23:51.862Z,20.58
2022-08-19T00:26:19.607Z,20.53
2022-08-19T00:28:47.551Z,20.63
2022-08-19T00:31:17.151Z,20.46
2022-08-19T00:33:46.194Z,20.53
2022-08-19T00:36:13.981Z,20.40
2022-08-19T00:38:43.834Z,20.48
2022-08-19T00:41:14.141Z,20.47
2022-08-19T00:43:42.182Z,20.46
2022-08-19T00:46:10.165Z,20.44
2022-08-19T00:48:38.174Z,20.47
2022-08-19T00:51:07.901Z,20.48
2022-08-19T00:53:36.006Z,20.47
2022-08-19T00:56:07.071Z,20.53
2022-08-19T00:58:35.807Z,20.41
2022-08-19T01:01:04.250Z,20.38
2022-08-19T01:03:57.296Z,20.50
2022-08-19T01:06:21.018Z,20.46
2022-08-19T01:08:50.156Z,20.42
2022-08-19T01:11:18.492Z,20.29
2022-08-19T01:13:50.003Z,20.46
2022-08-19T01:16:19.187Z,20.33
2022-08-19T01:18:46.936Z,20.25
2022-08-19T01:21:20.510Z,20.30
2022-08-19T01:23:49.842Z,20.36
2022-08-19T01:26:20.198Z,20.22
2022-08-19T01:28:51.036Z,20.23
2022-08-19T01:31:26.776Z,20.20
2022-08-19T01:33:57.777Z,20.11
2022-08-19T01:36:29.290Z,20.22
2022-08-19T01:38:59.020Z,20.08
2022-08-19T01:41:27.116Z,20.09
2022-08-19T01:44:09.761Z,20.09
2022-08-19T01:46:42.900Z,20.05
2022-08-19T01:49:11.056Z,20.14
2022-08-19T01:51:39.694Z,20.04
2022-08-19T01:54:09.593Z,20.03
2022-08-19T01:56:37.630Z,20.03
2022-08-19T01:59:07.634Z,20.01
2022-08-19T02:01:35.631Z,20.04
2022-08-19T02:04:04.391Z,20.00
2022-08-19T02:06:32.221Z,20.07
2022-08-19T02:08:59.953Z,19.94
2022-08-19T02:11:32.286Z,19.89
2022-08-19T02:14:00.387Z,19.95
2022-08-19T02:16:28.104Z,20.10
2022-08-19T02:18:56.204Z,20.13
2022-08-19T02:21:25.122Z,19.91
2022-08-19T02:23:53.159Z,19.88
2022-08-19T02:26:20.884Z,20.01
2022-08-19T02:28:50.122Z,19.92
2022-08-19T02:31:19.638Z,19.98
2022-08-19T02:33:47.797Z,19.93
2022-08-19T02:36:20.665Z,19.84
2022-08-19T02:38:54.790Z,19.85
2022-08-19T02:41:26.601Z,19.86
2022-08-19T02:44:26.448Z,19.85
2022-08-19T02:46:45.048Z,19.86
2022-08-19T02:49:12.728Z,19.83
2022-08-19T02:51:43.553Z,19.94
2022-08-19T02:54:12.142Z,19.90
2022-08-19T02:56:41.603Z,19.82
2022-08-19T02:59:12.549Z,19.83
2022-08-19T03:01:43.063Z,19.87
2022-08-19T03:04:12.939Z,19.85
2022-08-19T03:06:41.925Z,19.73
2022-08-19T03:09:09.790Z,19.76
2022-08-19T03:11:37.843Z,19.77
2022-08-19T03:14:07.076Z,19.72
2022-08-19T03:16:42.313Z,19.72
2022-08-19T03:19:10.079Z,19.74
2022-08-19T03:21:37.772Z,19.72
2022-08-19T03:24:07.681Z,19.65
2022-08-19T03:26:36.086Z,19.61
2022-08-19T03:29:08.652Z,19.54
2022-08-19T03:31:45.626Z,19.51
2022-08-19T03:34:23.070Z,19.45
2022-08-19T03:36:50.879Z,19.44
2022-08-19T03:39:18.915Z,19.48
2022-08-19T03:41:48.609Z,19.36
2022-08-19T03:44:18.945Z,19.44
2022-08-19T03:46:49.617Z,19.44
2022-08-19T03:49:18.197Z,19.41
2022-08-19T03:51:47.812Z,19.42
2022-08-19T03:54:17.404Z,19.41
2022-08-19T03:56:46.933Z,19.38
2022-08-19T03:59:16.848Z,19.37
2022-08-19T04:01:45.049Z,19.39
2022-08-19T04:04:14.290Z,19.46
2022-08-19T04:06:42.713Z,19.51
2022-08-19T04:09:12.136Z,19.36
2022-08-19T04:11:44.291Z,19.33
2022-08-19T04:14:13.818Z,19.24
2022-08-19T04:16:47.220Z,19.31
2022-08-19T04:19:17.692Z,19.26
2022-08-19T04:21:46.481Z,19.24
2022-08-19T04:24:14.545Z,19.30
2022-08-19T04:26:42.857Z,19.24
2022-08-19T04:29:12.964Z,19.14
2022-08-19T04:31:42.105Z,19.12
2022-08-19T04:34:12.199Z,19.08
2022-08-19T04:36:45.463Z,19.10
2022-08-19T04:39:15.221Z,19.10
2022-08-19T04:42:00.374Z,19.07
2022-08-19T04:44:31.495Z,18.97
2022-08-19T04:47:01.468Z,18.96
2022-08-19T04:49:31.016Z,19.01
2022-08-19T04:52:00.096Z,18.93
2022-08-19T04:54:37.978Z,18.85
2022-08-19T04:57:09.706Z,18.84
2022-08-19T04:59:38.394Z,18.88
2022-08-19T05:02:06.787Z,18.95
2022-08-19T05:04:35.185Z,18.93
2022-08-19T05:07:04.241Z,18.91
2022-08-19T05:09:53.288Z,18.91
2022-08-19T05:12:20.399Z,18.96
2022-08-19T05:14:48.828Z,19.04
2022-08-19T05:17:36.292Z,19.11
2022-08-19T05:20:23.522Z,19.07
2022-08-19T05:22:53.433Z,19.14
2022-08-19T05:25:23.315Z,19.19
2022-08-19T05:27:51.497Z,19.27
2022-08-19T05:30:33.597Z,19.39
2022-08-19T05:33:07.412Z,19.42
2022-08-19T05:35:35.098Z,19.50
2022-08-19T05:38:04.182Z,19.56
2022-08-19T05:40:31.958Z,19.59
2022-08-19T05:42:59.844Z,19.65
2022-08-19T05:45:28.800Z,19.68
2022-08-19T05:47:56.824Z,19.64
2022-08-19T05:50:24.599Z,19.59
2022-08-19T05:52:52.661Z,19.65
2022-08-19T05:55:23.106Z,19.73
2022-08-19T05:57:50.854Z,19.78
2022-08-19T06:00:22.716Z,19.79
2022-08-19T06:02:53.154Z,19.91
2022-08-19T06:05:21.121Z,19.96
2022-08-19T06:07:48.832Z,20.08
2022-08-19T06:10:16.711Z,20.26
2022-08-19T06:12:45.890Z,20.24
2022-08-19T06:15:15.307Z,20.37
2022-08-19T06:17:45.264Z,20.43
2022-08-19T06:20:15.229Z,20.53
2022-08-19T06:22:44.245Z,20.59
2022-08-19T06:25:12.469Z,20.66
2022-08-19T06:27:58.534Z,20.68
2022-08-19T06:30:29.844Z,20.87
2022-08-19T06:32:57.474Z,20.95
2022-08-19T06:35:26.295Z,21.09
2022-08-19T06:37:54.639Z,21.11
2022-08-19T06:40:22.625Z,21.23
2022-08-19T06:42:54.939Z,21.34
2022-08-19T06:45:24.820Z,21.39
2022-08-19T06:47:56.739Z,21.43
2022-08-19T06:50:24.992Z,21.37
2022-08-19T06:52:53.383Z,21.30
2022-08-19T06:55:21.609Z,21.32
2022-08-19T06:57:49.452Z,21.27
2022-08-19T07:00:18.025Z,21.27
2022-08-19T07:02:50.673Z,21.33
2022-08-19T07:05:24.687Z,21.44
2022-08-19T07:07:52.392Z,21.43
2022-08-19T07:10:20.382Z,21.39
2022-08-19T07:12:48.587Z,21.51
2022-08-19T07:15:16.812Z,21.54
2022-08-19T07:17:47.997Z,21.74
2022-08-19T07:20:20.521Z,21.73
2022-08-19T07:22:50.375Z,21.67
2022-08-19T07:25:18.807Z,21.87
2022-08-19T07:27:48.710Z,21.91
2022-08-19T07:30:23.297Z,21.91
2022-08-19T07:32:54.288Z,22.20
2022-08-19T07:35:22.045Z,22.30
2022-08-19T07:40:18.702Z,22.50
2022-08-19T07:42:46.345Z,22.69
2022-08-19T07:45:14.361Z,22.81
2022-08-19T07:47:58.450Z,22.85
2022-08-19T07:50:26.616Z,22.82
2022-08-19T07:52:55.705Z,22.97
2022-08-19T07:55:41.061Z,22.99
2022-08-19T07:58:11.958Z,23.11
2022-08-19T08:00:39.911Z,23.08
2022-08-19T08:03:07.641Z,23.13
2022-08-19T08:05:52.587Z,23.33
2022-08-19T08:08:44.305Z,23.25
2022-08-19T08:11:17.986Z,23.44
2022-08-19T08:14:01.359Z,23.51
2022-08-19T08:16:32.856Z,23.55
2022-08-19T08:19:02.472Z,23.75
2022-08-19T08:21:35.528Z,23.71
2022-08-19T08:24:05.151Z,23.74
2022-08-19T08:26:34.545Z,23.67
2022-08-19T08:29:02.442Z,23.63
2022-08-19T08:31:38.661Z,23.44
2022-08-19T08:34:06.327Z,23.39
2022-08-19T08:36:34.539Z,23.42
2022-08-19T08:39:02.701Z,23.42
2022-08-19T08:41:37.704Z,23.38
2022-08-19T08:44:06.189Z,23.63
2022-08-19T08:46:39.608Z,23.57
2022-08-19T08:49:18.218Z,23.83
2022-08-19T08:51:59.729Z,23.90
2022-08-19T08:54:32.907Z,24.04
2022-08-19T08:57:06.926Z,24.04
2022-08-19T08:59:37.918Z,24.28
2022-08-19T09:02:05.873Z,24.24
2022-08-19T09:04:34.116Z,24.38
2022-08-19T09:07:18.634Z,24.42
2022-08-19T09:10:07.302Z,24.64
2022-08-19T09:12:50.080Z,24.68
2022-08-19T09:15:21.148Z,24.75
2022-08-19T09:18:02.866Z,24.76
2022-08-19T09:20:32.350Z,25.00
2022-08-19T09:23:00.856Z,25.11
2022-08-19T09:25:29.493Z,25.01
2022-08-19T09:28:05.651Z,24.86
2022-08-19T09:30:43.440Z,25.10
2022-08-19T09:33:11.385Z,25.03
2022-08-19T09:35:50.094Z,25.06
2022-08-19T09:38:21.736Z,25.42
2022-08-19T09:40:50.509Z,25.52
2022-08-19T09:43:33.041Z,25.48
2022-08-19T09:46:02.236Z,25.27
2022-08-19T09:48:29.992Z,25.09
2022-08-19T09:51:04.875Z,25.46
2022-08-19T09:53:32.743Z,25.42
2022-08-19T09:56:04.195Z,25.73
2022-08-19T09:58:33.597Z,25.87
2022-08-19T10:01:03.412Z,25.98
2022-08-19T10:03:32.481Z,26.11
2022-08-19T10:06:01.894Z,26.15
2022-08-19T10:08:32.056Z,26.14
2022-08-19T10:10:59.928Z,26.02
2022-08-19T10:13:49.741Z,26.12
2022-08-19T10:16:20.102Z,26.33
2022-08-19T10:18:49.766Z,26.45
2022-08-19T10:21:20.226Z,26.45
2022-08-19T10:23:49.782Z,26.63
2022-08-19T10:26:21.583Z,26.61
2022-08-19T10:28:51.114Z,26.67
2022-08-19T10:32:00.346Z,26.57
2022-08-19T10:34:27.063Z,26.69
2022-08-19T10:37:00.443Z,26.88
2022-08-19T10:39:30.977Z,26.93
2022-08-19T10:41:59.514Z,27.16
2022-08-19T10:44:32.272Z,26.90
2022-08-19T10:47:01.346Z,26.88
2022-08-19T10:49:29.442Z,26.94
2022-08-19T10:52:18.798Z,27.10
2022-08-19T10:55:08.531Z,27.26
2022-08-19T11:00:27.020Z,27.26
2022-08-19T11:02:55.042Z,27.22
2022-08-19T11:05:24.278Z,26.74
2022-08-19T11:07:53.019Z,26.93
2022-08-19T11:10:22.067Z,27.19
2022-08-19T11:12:55.207Z,27.29
2022-08-19T11:15:25.506Z,27.38
2022-08-19T11:17:55.554Z,27.42
2022-08-19T11:20:24.513Z,27.31
2022-08-19T11:22:53.687Z,26.84
2022-08-19T11:25:21.476Z,26.96
2022-08-19T11:27:51.918Z,27.39
2022-08-19T11:30:19.676Z,27.66
2022-08-19T11:32:49.638Z,27.67
2022-08-19T11:35:17.695Z,27.78
2022-08-19T11:37:45.397Z,28.03
2022-08-19T11:40:13.827Z,28.13
2022-08-19T11:42:57.175Z,27.89
2022-08-19T11:45:25.213Z,28.10
2022-08-19T11:47:54.552Z,28.14
2022-08-19T11:50:24.268Z,28.27
2022-08-19T11:52:52.440Z,28.34
2022-08-19T11:55:20.250Z,28.34
2022-08-19T11:57:48.044Z,28.23
2022-08-19T12:00:16.406Z,28.18
2022-08-19T12:02:44.396Z,28.47
2022-08-19T12:05:13.483Z,28.28
2022-08-19T12:07:44.595Z,28.41
2022-08-19T12:10:12.804Z,28.42
2022-08-19T12:12:43.257Z,28.52
2022-08-19T12:15:12.967Z,28.34
2022-08-19T12:17:41.108Z,28.26
2022-08-19T12:20:11.262Z,28.40
2022-08-19T12:22:40.302Z,28.50
2022-08-19T12:25:09.275Z,28.59
2022-08-19T12:27:40.256Z,28.68
2022-08-19T12:30:12.141Z,28.73
2022-08-19T12:32:41.404Z,28.83
2022-08-19T12:35:10.041Z,28.66
2022-08-19T12:37:37.939Z,28.91
2022-08-19T12:40:08.626Z,28.51
2022-08-19T12:42:36.578Z,28.77
2022-08-19T12:45:04.898Z,28.88
2022-08-19T12:47:34.327Z,28.98
2022-08-19T12:50:09.570Z,29.16
2022-08-19T12:52:38.690Z,29.11
2022-08-19T12:55:09.950Z,29.12
2022-08-19T12:57:37.784Z,28.99
2022-08-19T13:00:11.401Z,28.92
2022-08-19T13:02:39.794Z,29.21
2022-08-19T13:05:10.750Z,29.39
2022-08-19T13:07:39.454Z,29.26
2022-08-19T13:10:12.040Z,29.40
2022-08-19T13:12:40.112Z,29.33
2022-08-19T13:15:11.273Z,29.36
2022-08-19T13:17:39.723Z,29.52
2022-08-19T13:20:09.764Z,29.64
2022-08-19T13:22:38.094Z,29.80
2022-08-19T13:25:06.596Z,29.76
2022-08-19T13:27:36.000Z,29.96
2022-08-19T13:30:23.041Z,29.40
2022-08-19T13:33:08.403Z,29.31
2022-08-19T13:35:36.509Z,29.34
2022-08-19T13:38:05.739Z,29.40
2022-08-19T13:40:37.344Z,29.51
2022-08-19T13:43:17.692Z,29.65
2022-08-19T13:45:51.702Z,29.75
2022-08-19T13:48:19.673Z,29.86
2022-08-19T13:50:48.991Z,29.72
2022-08-19T13:53:17.611Z,29.49
2022-08-19T13:55:45.704Z,29.00
2022-08-19T13:58:15.398Z,29.01
2022-08-19T14:00:45.712Z,28.68
2022-08-19T14:03:14.219Z,28.84
2022-08-19T14:05:42.014Z,28.98
2022-08-19T14:08:10.229Z,29.37
2022-08-19T14:10:37.919Z,29.39
2022-08-19T14:13:05.946Z,29.11
2022-08-19T14:15:35.139Z,28.85
2022-08-19T14:18:03.209Z,29.02
2022-08-19T14:20:30.866Z,28.93
2022-08-19T14:22:58.688Z,28.93
2022-08-19T14:25:28.207Z,28.81
2022-08-19T14:27:56.747Z,29.01
2022-08-19T14:30:27.730Z,28.99
2022-08-19T14:32:56.890Z,28.73
2022-08-19T14:35:25.003Z,28.86
2022-08-19T14:37:54.822Z,28.79
2022-08-19T14:40:26.656Z,28.78
2022-08-19T14:42:59.941Z,29.00
2022-08-19T14:45:29.068Z,29.04
2022-08-19T14:48:00.563Z,29.19
2022-08-19T14:50:28.589Z,29.26
2022-08-19T14:53:00.938Z,29.35
2022-08-19T14:55:28.894Z,29.43
2022-08-19T14:57:56.746Z,29.09
2022-08-19T15:00:26.262Z,29.24
2022-08-19T15:02:55.499Z,28.99
2022-08-19T15:05:25.051Z,29.05
2022-08-19T15:07:52.723Z,28.90
2022-08-19T15:10:20.537Z,29.02
2022-08-19T15:12:51.685Z,29.02
2022-08-19T15:15:20.777Z,29.21
2022-08-19T15:17:48.524Z,29.00
2022-08-19T15:20:19.999Z,29.12
2022-08-19T15:22:49.372Z,29.04
2022-08-19T15:25:19.330Z,29.07
2022-08-19T15:27:47.145Z,29.16
2022-08-19T15:30:21.970Z,29.11
2022-08-19T15:32:49.695Z,29.22
2022-08-19T15:35:19.282Z,28.96
2022-08-19T15:37:47.025Z,29.05
2022-08-19T15:40:16.213Z,28.90
2022-08-19T15:42:44.643Z,29.04
2022-08-19T15:45:13.391Z,28.87
2022-08-19T15:47:41.904Z,28.84
2022-08-19T15:50:13.614Z,28.74
2022-08-19T15:52:50.049Z,28.45
2022-08-19T15:55:33.341Z,28.46
2022-08-19T15:58:27.729Z,28.54
2022-08-19T16:01:14.737Z,28.56
2022-08-19T16:03:59.829Z,28.64
2022-08-19T16:06:27.782Z,28.74
2022-08-19T16:08:56.254Z,28.84
2022-08-19T16:11:30.416Z,28.94
2022-08-19T16:13:59.401Z,28.95
2022-08-19T16:16:31.021Z,28.90
2022-08-19T16:19:03.794Z,29.04
2022-08-19T16:21:33.390Z,29.13
2022-08-19T16:24:03.531Z,28.82
2022-08-19T16:26:33.441Z,28.85
2022-08-19T16:29:02.598Z,28.88
2022-08-19T16:31:31.078Z,28.83
2022-08-19T16:33:59.249Z,28.80
2022-08-19T16:36:28.374Z,28.83
2022-08-19T16:38:56.662Z,28.86
2022-08-19T16:41:28.702Z,28.73
2022-08-19T16:43:58.497Z,28.85
2022-08-19T16:46:27.659Z,28.86
2022-08-19T16:48:55.652Z,28.82
2022-08-19T16:51:23.616Z,28.74
2022-08-19T16:53:52.919Z,28.63
2022-08-19T16:56:21.336Z,28.75
2022-08-19T16:58:50.534Z,28.69
2022-08-19T17:01:19.818Z,28.47
2022-08-19T17:03:50.383Z,28.48
2022-08-19T17:06:20.796Z,28.55
2022-08-19T17:08:49.762Z,28.29
2022-08-19T17:11:18.896Z,28.32
2022-08-19T17:13:47.969Z,28.20
2022-08-19T17:16:16.375Z,28.13
2022-08-19T17:18:45.726Z,28.13
2022-08-19T17:21:13.449Z,28.19
2022-08-19T17:23:42.802Z,28.18
2022-08-19T17:26:17.223Z,28.06
2022-08-19T17:28:47.258Z,27.98
2022-08-19T17:31:15.165Z,27.91
2022-08-19T17:33:42.854Z,27.70
2022-08-19T17:36:17.807Z,27.59
2022-08-19T17:38:45.694Z,27.43
2022-08-19T17:41:13.307Z,27.41
2022-08-19T17:43:43.839Z,27.33
2022-08-19T17:46:17.605Z,27.36
2022-08-19T17:48:51.944Z,27.29
2022-08-19T17:51:24.781Z,27.29
2022-08-19T17:53:54.379Z,27.19
2022-08-19T17:56:23.526Z,27.04
2022-08-19T17:58:59.592Z,26.91
2022-08-19T18:01:30.046Z,26.87
2022-08-19T18:04:11.861Z,26.85
2022-08-19T18:06:41.645Z,26.60
2022-08-19T18:09:14.421Z,26.50
2022-08-19T18:11:43.818Z,26.46
2022-08-19T18:14:12.831Z,26.38
2022-08-19T18:16:40.626Z,26.39
2022-08-19T18:19:09.014Z,26.19
2022-08-19T18:21:36.736Z,26.05
2022-08-19T18:24:06.256Z,25.99
2022-08-19T18:26:34.838Z,25.80
2022-08-19T18:29:02.935Z,25.80
2022-08-19T18:31:30.605Z,25.77
2022-08-19T18:33:58.397Z,25.69
2022-08-19T18:36:51.955Z,25.62
2022-08-19T18:39:32.304Z,25.39
2022-08-19T18:42:17.483Z,25.53
2022-08-19T18:45:14.235Z,25.35
2022-08-19T18:47:59.520Z,25.14
2022-08-19T18:50:27.239Z,25.09
2022-08-19T18:52:54.839Z,25.02
2022-08-19T18:55:23.945Z,24.98
2022-08-19T18:57:51.950Z,25.01
2022-08-19T19:00:20.745Z,24.88
2022-08-19T19:02:48.618Z,24.84
2022-08-19T19:05:16.837Z,24.74
2022-08-19T19:07:44.562Z,24.58
2022-08-19T19:10:12.256Z,24.55
2022-08-19T19:12:44.552Z,24.46
2022-08-19T19:15:12.321Z,24.56
2022-08-19T19:17:41.930Z,24.45
2022-08-19T19:20:10.271Z,24.28
2022-08-19T19:22:37.893Z,24.29
2022-08-19T19:25:08.135Z,24.16
2022-08-19T19:27:35.810Z,24.12
2022-08-19T19:30:05.548Z,24.11
2022-08-19T19:32:39.193Z,24.09
2022-08-19T19:35:09.412Z,24.01
2022-08-19T19:37:37.059Z,24.08
2022-08-19T19:40:05.769Z,23.93
2022-08-19T19:42:33.433Z,23.84
2022-08-19T19:45:02.952Z,23.74
2022-08-19T19:47:32.084Z,23.66
2022-08-19T19:50:16.189Z,23.77
2022-08-19T19:52:46.766Z,23.70
2022-08-19T19:55:17.893Z,23.63
2022-08-19T19:57:46.259Z,23.68
2022-08-19T20:00:16.398Z,23.70
2022-08-19T20:02:49.867Z,23.62
2022-08-19T20:05:20.973Z,23.53
2022-08-19T20:08:06.081Z,23.44
2022-08-19T20:10:34.312Z,23.43
2022-08-19T20:13:03.525Z,23.48
2022-08-19T20:15:31.419Z,23.40
2022-08-19T20:18:02.254Z,23.33
2022-08-19T20:20:30.184Z,23.30
2022-08-19T20:22:57.790Z,23.21
2022-08-19T20:25:25.561Z,23.18
2022-08-19T20:27:53.303Z,23.30
2022-08-19T20:30:23.397Z,23.23
2022-08-19T20:32:51.496Z,23.19
2022-08-19T20:35:22.302Z,23.15
2022-08-19T20:37:52.868Z,23.17
2022-08-19T20:40:23.788Z,23.17
2022-08-19T20:42:51.487Z,23.23
2022-08-19T20:45:32.709Z,23.06
2022-08-19T20:48:02.320Z,22.96
2022-08-19T20:50:31.664Z,22.99
2022-08-19T20:53:00.553Z,23.25
2022-08-19T20:55:30.417Z,23.10
2022-08-19T20:57:58.575Z,22.96
2022-08-19T21:00:26.272Z,23.01
2022-08-19T21:02:53.886Z,23.00
2022-08-19T21:05:21.574Z,22.95
2022-08-19T21:07:50.688Z,22.95
2022-08-19T21:10:18.466Z,22.85
2022-08-19T21:12:46.700Z,22.92
2022-08-19T21:15:17.900Z,22.84
2022-08-19T21:17:46.509Z,22.90
2022-08-19T21:20:14.391Z,22.88
2022-08-19T21:22:42.038Z,22.86
2022-08-19T21:25:11.274Z,22.73
2022-08-19T21:27:39.203Z,22.66
2022-08-19T21:30:08.893Z,22.61
2022-08-19T21:35:04.538Z,22.75
2022-08-19T21:37:33.552Z,22.76
2022-08-19T21:40:01.589Z,22.70
2022-08-19T21:42:30.750Z,22.78
2022-08-19T21:44:58.535Z,22.68
2022-08-19T21:47:26.698Z,22.64
2022-08-19T21:49:54.799Z,22.66
2022-08-19T21:52:23.381Z,22.67
2022-08-19T21:54:51.007Z,22.59
2022-08-19T21:57:18.937Z,22.60
2022-08-19T21:59:47.980Z,22.50
2022-08-19T22:02:21.559Z,22.61
2022-08-19T22:04:50.821Z,22.63
2022-08-19T22:07:19.916Z,22.45
2022-08-19T22:09:49.420Z,22.56
2022-08-19T22:12:23.433Z,22.57
2022-08-19T22:14:53.437Z,22.44
2022-08-19T22:17:22.294Z,22.42
2022-08-19T22:19:50.962Z,22.40
2022-08-19T22:22:22.251Z,22.48
2022-08-19T22:24:50.272Z,22.39
2022-08-19T22:27:18.137Z,22.30
2022-08-19T22:29:46.022Z,22.23
2022-08-19T22:32:27.122Z,22.19
2022-08-19T22:34:58.644Z,22.16
2022-08-19T22:37:27.212Z,22.15
2022-08-19T22:39:55.250Z,22.08
2022-08-19T22:42:23.868Z,22.08
2022-08-19T22:44:51.855Z,22.05
2022-08-19T22:47:22.868Z,22.12
2022-08-19T22:49:54.928Z,22.01
2022-08-19T22:52:22.046Z,21.99
2022-08-19T22:54:51.988Z,21.83
2022-08-19T22:57:21.189Z,21.76
2022-08-19T22:59:50.585Z,21.60
2022-08-19T23:02:20.180Z,21.62
2022-08-19T23:04:49.807Z,21.58
2022-08-19T23:07:18.011Z,21.66
2022-08-19T23:09:51.528Z,21.54
2022-08-19T23:12:27.744Z,21.42
2022-08-19T23:14:56.008Z,21.36
2022-08-19T23:17:23.826Z,21.47
2022-08-19T23:19:53.512Z,21.32
2022-08-19T23:22:21.119Z,21.27
2022-08-19T23:24:56.222Z,21.37
2022-08-19T23:27:41.709Z,21.32
2022-08-19T23:30:29.221Z,21.27
2022-08-19T23:32:59.019Z,21.39
2022-08-19T23:35:33.322Z,21.34
2022-08-19T23:38:01.623Z,21.34
2022-08-19T23:40:29.392Z,21.20
2022-08-19T23:42:57.404Z,21.14
2022-08-19T23:45:27.462Z,21.19
2022-08-19T23:47:55.392Z,21.10
2022-08-19T23:50:23.875Z,21.08
2022-08-19T23:52:55.229Z,20.92
2022-08-19T23:55:25.492Z,20.83
2022-08-19T23:57:53.525Z,20.91
